sensor_id;sensor_type;location;lat;lon;timestamp;P1;durP1;ratioP1;P2;durP2;ratioP2
45236;SDS011;30973;51.442;3.580;2022-10-18T00:02:23;10.65;;;6.65;;
45236;SDS011;30973;51.442;3.580;2022-10-18T00:04:51;7.97;;;6.63;;
45236;SDS011;30973;51.442;3.580;2022-10-18T00:07:18;8.70;;;6.32;;
45236;SDS011;30973;51.442;3.580;2022-10-18T00:09:45;13.35;;;5.47;;
45236;SDS011;30973;51.442;3.580;2022-10-18T00:12:13;9.98;;;5.05;;
45236;SDS011;30973;51.442;3.580;2022-10-18T00:14:40;10.82;;;3.88;;
45236;SDS011;30973;51.442;3.580;2022-10-18T00:17:08;8.80;;;3.80;;
45236;SDS011;30973;51.442;3.580;2022-10-18T00:19:35;9.35;;;4.18;;
45236;SDS011;30973;51.442;3.580;2022-10-18T00:22:02;7.35;;;3.88;;
45236;SDS011;30973;51.442;3.580;2022-10-18T00:24:29;7.15;;;3.05;;
45236;SDS011;30973;51.442;3.580;2022-10-18T00:26:57;8.20;;;3.50;;
45236;SDS011;30973;51.442;3.580;2022-10-18T00:29:24;5.65;;;2.78;;
45236;SDS011;30973;51.442;3.580;2022-10-18T00:31:51;11.00;;;3.78;;
45236;SDS011;30973;51.442;3.580;2022-10-18T00:34:19;10.68;;;3.42;;
45236;SDS011;30973;51.442;3.580;2022-10-18T00:36:46;9.40;;;3.55;;
45236;SDS011;30973;51.442;3.580;2022-10-18T00:39:17;7.70;;;3.60;;
45236;SDS011;30973;51.442;3.580;2022-10-18T00:41:44;8.25;;;3.67;;
45236;SDS011;30973;51.442;3.580;2022-10-18T00:46:40;6.55;;;4.00;;
45236;SDS011;30973;51.442;3.580;2022-10-18T00:49:10;11.13;;;3.92;;
45236;SDS011;30973;51.442;3.580;2022-10-18T00:51:49;8.05;;;3.88;;
45236;SDS011;30973;51.442;3.580;2022-10-18T00:54:17;7.13;;;3.60;;
45236;SDS011;30973;51.442;3.580;2022-10-18T00:56:45;9.18;;;4.00;;
45236;SDS011;30973;51.442;3.580;2022-10-18T00:59:12;9.75;;;4.00;;
45236;SDS011;30973;51.442;3.580;2022-10-18T01:01:41;11.98;;;4.30;;
45236;SDS011;30973;51.442;3.580;2022-10-18T01:04:08;7.32;;;3.28;;
45236;SDS011;30973;51.442;3.580;2022-10-18T01:09:19;11.27;;;3.88;;
45236;SDS011;30973;51.442;3.580;2022-10-18T01:21:49;9.10;;;3.67;;
45236;SDS011;30973;51.442;3.580;2022-10-18T01:31:58;10.32;;;3.78;;
45236;SDS011;30973;51.442;3.580;2022-10-18T01:34:27;8.00;;;3.65;;
45236;SDS011;30973;51.442;3.580;2022-10-18T01:36:56;9.15;;;3.80;;
45236;SDS011;30973;51.442;3.580;2022-10-18T01:39:25;8.15;;;3.63;;
45236;SDS011;30973;51.442;3.580;2022-10-18T01:41:53;9.95;;;3.92;;
45236;SDS011;30973;51.442;3.580;2022-10-18T01:44:24;6.68;;;3.58;;
45236;SDS011;30973;51.442;3.580;2022-10-18T01:46:52;10.82;;;3.50;;
45236;SDS011;30973;51.442;3.580;2022-10-18T01:49:20;8.93;;;3.25;;
45236;SDS011;30973;51.442;3.580;2022-10-18T01:51:48;5.57;;;3.92;;
45236;SDS011;30973;51.442;3.580;2022-10-18T01:54:16;9.27;;;3.88;;
45236;SDS011;30973;51.442;3.580;2022-10-18T01:59:28;6.93;;;3.40;;
45236;SDS011;30973;51.442;3.580;2022-10-18T02:02:15;6.10;;;3.42;;
45236;SDS011;30973;51.442;3.580;2022-10-18T02:05:00;10.52;;;3.80;;
45236;SDS011;30973;51.442;3.580;2022-10-18T02:12:55;7.03;;;3.47;;
45236;SDS011;30973;51.442;3.580;2022-10-18T02:15:29;9.27;;;3.70;;
45236;SDS011;30973;51.442;3.580;2022-10-18T02:17:57;8.88;;;3.80;;
45236;SDS011;30973;51.442;3.580;2022-10-18T02:20:24;8.13;;;3.90;;
45236;SDS011;30973;51.442;3.580;2022-10-18T02:22:54;8.75;;;4.35;;
45236;SDS011;30973;51.442;3.580;2022-10-18T02:25:23;10.38;;;4.78;;
45236;SDS011;30973;51.442;3.580;2022-10-18T02:27:52;8.63;;;3.95;;
45236;SDS011;30973;51.442;3.580;2022-10-18T02:30:21;12.77;;;4.65;;
45236;SDS011;30973;51.442;3.580;2022-10-18T02:32:53;8.93;;;4.65;;
45236;SDS011;30973;51.442;3.580;2022-10-18T02:35:28;11.45;;;5.30;;
45236;SDS011;30973;51.442;3.580;2022-10-18T02:37:57;8.52;;;5.15;;
45236;SDS011;30973;51.442;3.580;2022-10-18T02:40:24;13.70;;;5.15;;
45236;SDS011;30973;51.442;3.580;2022-10-18T02:42:53;10.18;;;5.05;;
45236;SDS011;30973;51.442;3.580;2022-10-18T02:45:20;10.18;;;4.88;;
45236;SDS011;30973;51.442;3.580;2022-10-18T02:47:48;9.48;;;4.95;;
45236;SDS011;30973;51.442;3.580;2022-10-18T02:50:16;11.30;;;5.75;;
45236;SDS011;30973;51.442;3.580;2022-10-18T02:52:43;10.93;;;5.53;;
45236;SDS011;30973;51.442;3.580;2022-10-18T02:55:10;7.95;;;5.65;;
45236;SDS011;30973;51.442;3.580;2022-10-18T02:57:38;9.02;;;5.88;;
45236;SDS011;30973;51.442;3.580;2022-10-18T03:00:05;10.57;;;6.25;;
45236;SDS011;30973;51.442;3.580;2022-10-18T03:02:32;8.77;;;5.80;;
45236;SDS011;30973;51.442;3.580;2022-10-18T03:05:00;9.13;;;6.03;;
45236;SDS011;30973;51.442;3.580;2022-10-18T03:07:27;8.80;;;5.85;;
45236;SDS011;30973;51.442;3.580;2022-10-18T03:09:55;11.43;;;6.40;;
45236;SDS011;30973;51.442;3.580;2022-10-18T03:12:22;13.38;;;6.80;;
45236;SDS011;30973;51.442;3.580;2022-10-18T03:14:50;12.13;;;6.22;;
45236;SDS011;30973;51.442;3.580;2022-10-18T03:17:17;11.32;;;6.60;;
45236;SDS011;30973;51.442;3.580;2022-10-18T03:19:44;11.68;;;6.47;;
45236;SDS011;30973;51.442;3.580;2022-10-18T03:22:12;12.80;;;6.97;;
45236;SDS011;30973;51.442;3.580;2022-10-18T03:24:39;7.28;;;5.80;;
45236;SDS011;30973;51.442;3.580;2022-10-18T03:27:06;9.88;;;6.50;;
45236;SDS011;30973;51.442;3.580;2022-10-18T03:29:34;9.73;;;6.22;;
45236;SDS011;30973;51.442;3.580;2022-10-18T03:32:01;12.23;;;6.20;;
45236;SDS011;30973;51.442;3.580;2022-10-18T03:34:28;10.63;;;6.30;;
45236;SDS011;30973;51.442;3.580;2022-10-18T03:36:56;12.07;;;6.35;;
45236;SDS011;30973;51.442;3.580;2022-10-18T03:39:28;10.20;;;5.85;;
45236;SDS011;30973;51.442;3.580;2022-10-18T03:41:56;10.02;;;6.63;;
45236;SDS011;30973;51.442;3.580;2022-10-18T03:44:23;8.73;;;6.40;;
45236;SDS011;30973;51.442;3.580;2022-10-18T03:46:50;9.00;;;6.25;;
45236;SDS011;30973;51.442;3.580;2022-10-18T03:49:17;14.45;;;7.10;;
45236;SDS011;30973;51.442;3.580;2022-10-18T03:51:45;9.00;;;6.47;;
45236;SDS011;30973;51.442;3.580;2022-10-18T03:54:12;11.32;;;6.47;;
45236;SDS011;30973;51.442;3.580;2022-10-18T03:56:39;11.52;;;7.20;;
45236;SDS011;30973;51.442;3.580;2022-10-18T03:59:07;7.68;;;6.60;;
45236;SDS011;30973;51.442;3.580;2022-10-18T04:01:34;7.13;;;5.82;;
45236;SDS011;30973;51.442;3.580;2022-10-18T04:04:01;8.95;;;6.80;;
45236;SDS011;30973;51.442;3.580;2022-10-18T04:06:29;8.10;;;6.32;;
45236;SDS011;30973;51.442;3.580;2022-10-18T04:08:56;8.82;;;6.15;;
45236;SDS011;30973;51.442;3.580;2022-10-18T04:11:23;11.00;;;6.13;;
45236;SDS011;30973;51.442;3.580;2022-10-18T04:13:51;8.32;;;5.53;;
45236;SDS011;30973;51.442;3.580;2022-10-18T04:16:18;8.68;;;6.57;;
45236;SDS011;30973;51.442;3.580;2022-10-18T04:18:45;8.38;;;6.70;;
45236;SDS011;30973;51.442;3.580;2022-10-18T04:21:13;8.68;;;6.57;;
45236;SDS011;30973;51.442;3.580;2022-10-18T04:23:40;10.82;;;6.90;;
45236;SDS011;30973;51.442;3.580;2022-10-18T04:26:08;9.38;;;6.22;;
45236;SDS011;30973;51.442;3.580;2022-10-18T04:28:35;7.53;;;6.15;;
45236;SDS011;30973;51.442;3.580;2022-10-18T04:31:05;8.65;;;6.15;;
45236;SDS011;30973;51.442;3.580;2022-10-18T04:33:32;8.05;;;6.43;;
45236;SDS011;30973;51.442;3.580;2022-10-18T04:36:00;8.15;;;6.18;;
45236;SDS011;30973;51.442;3.580;2022-10-18T04:38:27;9.00;;;6.60;;
45236;SDS011;30973;51.442;3.580;2022-10-18T04:40:55;8.88;;;6.65;;
45236;SDS011;30973;51.442;3.580;2022-10-18T04:43:22;8.93;;;6.82;;
45236;SDS011;30973;51.442;3.580;2022-10-18T04:45:49;8.32;;;6.30;;
45236;SDS011;30973;51.442;3.580;2022-10-18T04:48:17;9.18;;;6.03;;
45236;SDS011;30973;51.442;3.580;2022-10-18T04:50:48;10.38;;;6.47;;
45236;SDS011;30973;51.442;3.580;2022-10-18T04:53:16;9.77;;;6.35;;
45236;SDS011;30973;51.442;3.580;2022-10-18T04:55:46;8.88;;;6.68;;
45236;SDS011;30973;51.442;3.580;2022-10-18T04:58:14;8.35;;;6.03;;
45236;SDS011;30973;51.442;3.580;2022-10-18T05:00:42;8.60;;;6.60;;
45236;SDS011;30973;51.442;3.580;2022-10-18T05:03:10;10.57;;;6.28;;
45236;SDS011;30973;51.442;3.580;2022-10-18T05:05:38;8.85;;;6.53;;
45236;SDS011;30973;51.442;3.580;2022-10-18T05:08:25;10.77;;;6.63;;
45236;SDS011;30973;51.442;3.580;2022-10-18T05:10:53;9.88;;;6.93;;
45236;SDS011;30973;51.442;3.580;2022-10-18T05:13:20;14.05;;;7.40;;
45236;SDS011;30973;51.442;3.580;2022-10-18T05:15:47;10.50;;;6.57;;
45236;SDS011;30973;51.442;3.580;2022-10-18T05:18:15;10.93;;;7.43;;
45236;SDS011;30973;51.442;3.580;2022-10-18T05:20:43;10.57;;;7.00;;
45236;SDS011;30973;51.442;3.580;2022-10-18T05:23:10;11.25;;;6.95;;
45236;SDS011;30973;51.442;3.580;2022-10-18T05:25:38;12.32;;;7.05;;
45236;SDS011;30973;51.442;3.580;2022-10-18T05:28:05;10.90;;;6.85;;
45236;SDS011;30973;51.442;3.580;2022-10-18T05:30:46;9.23;;;6.70;;
45236;SDS011;30973;51.442;3.580;2022-10-18T05:33:13;9.30;;;6.47;;
45236;SDS011;30973;51.442;3.580;2022-10-18T05:35:41;11.05;;;6.65;;
45236;SDS011;30973;51.442;3.580;2022-10-18T05:38:08;12.88;;;7.18;;
45236;SDS011;30973;51.442;3.580;2022-10-18T05:40:37;11.55;;;6.80;;
45236;SDS011;30973;51.442;3.580;2022-10-18T05:43:04;9.25;;;6.10;;
45236;SDS011;30973;51.442;3.580;2022-10-18T05:45:32;10.32;;;5.95;;
45236;SDS011;30973;51.442;3.580;2022-10-18T05:47:59;14.77;;;6.32;;
45236;SDS011;30973;51.442;3.580;2022-10-18T05:50:26;13.68;;;6.57;;
45236;SDS011;30973;51.442;3.580;2022-10-18T05:52:56;12.60;;;5.93;;
45236;SDS011;30973;51.442;3.580;2022-10-18T05:55:37;11.77;;;5.20;;
45236;SDS011;30973;51.442;3.580;2022-10-18T05:58:05;11.20;;;5.32;;
45236;SDS011;30973;51.442;3.580;2022-10-18T06:00:32;13.32;;;5.20;;
45236;SDS011;30973;51.442;3.580;2022-10-18T06:02:59;9.98;;;5.03;;
45236;SDS011;30973;51.442;3.580;2022-10-18T06:05:27;11.00;;;5.00;;
45236;SDS011;30973;51.442;3.580;2022-10-18T06:07:55;8.48;;;4.07;;
45236;SDS011;30973;51.442;3.580;2022-10-18T06:10:22;11.32;;;4.68;;
45236;SDS011;30973;51.442;3.580;2022-10-18T06:12:49;12.85;;;4.93;;
45236;SDS011;30973;51.442;3.580;2022-10-18T06:15:17;10.13;;;4.05;;
45236;SDS011;30973;51.442;3.580;2022-10-18T06:17:44;10.50;;;4.40;;
45236;SDS011;30973;51.442;3.580;2022-10-18T06:20:12;8.85;;;5.13;;
45236;SDS011;30973;51.442;3.580;2022-10-18T06:22:39;12.02;;;4.97;;
45236;SDS011;30973;51.442;3.580;2022-10-18T06:25:06;8.23;;;4.07;;
45236;SDS011;30973;51.442;3.580;2022-10-18T06:27:34;10.65;;;4.60;;
45236;SDS011;30973;51.442;3.580;2022-10-18T06:30:01;7.65;;;4.25;;
45236;SDS011;30973;51.442;3.580;2022-10-18T06:32:29;12.43;;;4.82;;
45236;SDS011;30973;51.442;3.580;2022-10-18T06:34:56;10.80;;;4.20;;
45236;SDS011;30973;51.442;3.580;2022-10-18T06:37:23;9.55;;;4.03;;
45236;SDS011;30973;51.442;3.580;2022-10-18T06:39:51;13.90;;;4.15;;
45236;SDS011;30973;51.442;3.580;2022-10-18T06:42:18;13.07;;;4.18;;
45236;SDS011;30973;51.442;3.580;2022-10-18T06:44:48;10.52;;;3.63;;
45236;SDS011;30973;51.442;3.580;2022-10-18T06:47:15;9.88;;;4.03;;
45236;SDS011;30973;51.442;3.580;2022-10-18T06:49:42;12.00;;;4.25;;
45236;SDS011;30973;51.442;3.580;2022-10-18T06:52:10;7.68;;;3.67;;
45236;SDS011;30973;51.442;3.580;2022-10-18T06:54:37;8.77;;;3.28;;
45236;SDS011;30973;51.442;3.580;2022-10-18T06:57:04;9.80;;;3.42;;
45236;SDS011;30973;51.442;3.580;2022-10-18T06:59:31;11.82;;;3.80;;
45236;SDS011;30973;51.442;3.580;2022-10-18T07:01:59;12.73;;;3.85;;
45236;SDS011;30973;51.442;3.580;2022-10-18T07:04:27;9.95;;;3.42;;
45236;SDS011;30973;51.442;3.580;2022-10-18T07:06:55;12.45;;;3.88;;
45236;SDS011;30973;51.442;3.580;2022-10-18T07:09:22;9.07;;;3.50;;
45236;SDS011;30973;51.442;3.580;2022-10-18T07:11:50;10.82;;;3.58;;
45236;SDS011;30973;51.442;3.580;2022-10-18T07:14:18;11.82;;;4.13;;
45236;SDS011;30973;51.442;3.580;2022-10-18T07:16:45;10.93;;;3.63;;
45236;SDS011;30973;51.442;3.580;2022-10-18T07:19:13;13.63;;;4.18;;
45236;SDS011;30973;51.442;3.580;2022-10-18T07:21:41;10.25;;;4.00;;
45236;SDS011;30973;51.442;3.580;2022-10-18T07:24:09;12.35;;;4.47;;
45236;SDS011;30973;51.442;3.580;2022-10-18T07:26:36;10.73;;;4.43;;
45236;SDS011;30973;51.442;3.580;2022-10-18T07:29:05;12.13;;;4.18;;
45236;SDS011;30973;51.442;3.580;2022-10-18T07:31:32;12.20;;;4.20;;
45236;SDS011;30973;51.442;3.580;2022-10-18T07:34:00;9.52;;;4.15;;
45236;SDS011;30973;51.442;3.580;2022-10-18T07:36:29;13.55;;;4.13;;
45236;SDS011;30973;51.442;3.580;2022-10-18T07:38:56;16.02;;;5.20;;
45236;SDS011;30973;51.442;3.580;2022-10-18T07:41:25;10.13;;;4.13;;
45236;SDS011;30973;51.442;3.580;2022-10-18T07:43:52;13.52;;;4.53;;
45236;SDS011;30973;51.442;3.580;2022-10-18T07:46:20;12.02;;;4.85;;
45236;SDS011;30973;51.442;3.580;2022-10-18T07:48:48;12.07;;;4.13;;
45236;SDS011;30973;51.442;3.580;2022-10-18T07:51:16;12.63;;;5.22;;
45236;SDS011;30973;51.442;3.580;2022-10-18T07:53:43;13.23;;;4.63;;
45236;SDS011;30973;51.442;3.580;2022-10-18T07:56:12;12.18;;;4.55;;
45236;SDS011;30973;51.442;3.580;2022-10-18T07:58:43;10.43;;;4.70;;
45236;SDS011;30973;51.442;3.580;2022-10-18T08:01:11;12.70;;;5.05;;
45236;SDS011;30973;51.442;3.580;2022-10-18T08:03:39;14.18;;;5.20;;
45236;SDS011;30973;51.442;3.580;2022-10-18T08:06:07;25.45;;;6.47;;
45236;SDS011;30973;51.442;3.580;2022-10-18T08:08:35;18.05;;;5.32;;
45236;SDS011;30973;51.442;3.580;2022-10-18T08:11:24;13.02;;;4.57;;
45236;SDS011;30973;51.442;3.580;2022-10-18T08:13:51;12.63;;;5.05;;
45236;SDS011;30973;51.442;3.580;2022-10-18T08:16:23;10.02;;;4.85;;
45236;SDS011;30973;51.442;3.580;2022-10-18T08:18:50;15.43;;;5.07;;
45236;SDS011;30973;51.442;3.580;2022-10-18T08:21:19;12.93;;;4.10;;
45236;SDS011;30973;51.442;3.580;2022-10-18T08:23:47;11.57;;;4.22;;
45236;SDS011;30973;51.442;3.580;2022-10-18T08:26:16;13.25;;;3.55;;
45236;SDS011;30973;51.442;3.580;2022-10-18T08:28:46;14.07;;;3.78;;
45236;SDS011;30973;51.442;3.580;2022-10-18T08:31:29;10.82;;;3.25;;
45236;SDS011;30973;51.442;3.580;2022-10-18T08:33:56;11.07;;;3.15;;
45236;SDS011;30973;51.442;3.580;2022-10-18T08:36:24;8.88;;;3.00;;
45236;SDS011;30973;51.442;3.580;2022-10-18T08:38:51;10.85;;;3.22;;
45236;SDS011;30973;51.442;3.580;2022-10-18T08:44:24;8.65;;;2.63;;
45236;SDS011;30973;51.442;3.580;2022-10-18T08:47:03;9.70;;;3.33;;
45236;SDS011;30973;51.442;3.580;2022-10-18T08:49:35;9.23;;;3.05;;
45236;SDS011;30973;51.442;3.580;2022-10-18T08:52:03;14.88;;;3.47;;
45236;SDS011;30973;51.442;3.580;2022-10-18T08:54:36;16.60;;;3.13;;
45236;SDS011;30973;51.442;3.580;2022-10-18T08:57:09;8.88;;;2.75;;
45236;SDS011;30973;51.442;3.580;2022-10-18T08:59:39;12.80;;;2.90;;
45236;SDS011;30973;51.442;3.580;2022-10-18T09:05:12;7.88;;;2.22;;
45236;SDS011;30973;51.442;3.580;2022-10-18T09:07:50;12.60;;;2.75;;
45236;SDS011;30973;51.442;3.580;2022-10-18T09:15:44;11.88;;;2.38;;
45236;SDS011;30973;51.442;3.580;2022-10-18T09:23:19;10.35;;;2.67;;
45236;SDS011;30973;51.442;3.580;2022-10-18T09:25:49;6.75;;;2.15;;
45236;SDS011;30973;51.442;3.580;2022-10-18T09:36:06;7.07;;;1.63;;
45236;SDS011;30973;51.442;3.580;2022-10-18T09:38:37;10.32;;;2.30;;
45236;SDS011;30973;51.442;3.580;2022-10-18T09:41:09;8.63;;;1.93;;
45236;SDS011;30973;51.442;3.580;2022-10-18T09:43:45;9.45;;;2.30;;
45236;SDS011;30973;51.442;3.580;2022-10-18T09:48:45;10.63;;;2.15;;
45236;SDS011;30973;51.442;3.580;2022-10-18T09:51:14;9.95;;;1.95;;
45236;SDS011;30973;51.442;3.580;2022-10-18T09:53:57;6.00;;;2.30;;
45236;SDS011;30973;51.442;3.580;2022-10-18T09:59:29;7.97;;;1.70;;
45236;SDS011;30973;51.442;3.580;2022-10-18T10:01:57;7.97;;;1.77;;
45236;SDS011;30973;51.442;3.580;2022-10-18T10:04:24;9.00;;;2.10;;
45236;SDS011;30973;51.442;3.580;2022-10-18T10:06:52;11.68;;;2.22;;
45236;SDS011;30973;51.442;3.580;2022-10-18T10:09:23;8.27;;;1.60;;
45236;SDS011;30973;51.442;3.580;2022-10-18T10:11:52;8.73;;;2.10;;
45236;SDS011;30973;51.442;3.580;2022-10-18T10:14:22;6.28;;;1.70;;
45236;SDS011;30973;51.442;3.580;2022-10-18T10:16:52;8.60;;;1.63;;
45236;SDS011;30973;51.442;3.580;2022-10-18T10:21:47;4.50;;;1.58;;
45236;SDS011;30973;51.442;3.580;2022-10-18T10:24:31;6.82;;;2.17;;
45236;SDS011;30973;51.442;3.580;2022-10-18T10:27:04;7.50;;;2.03;;
45236;SDS011;30973;51.442;3.580;2022-10-18T10:32:16;7.70;;;2.00;;
45236;SDS011;30973;51.442;3.580;2022-10-18T10:34:45;6.82;;;1.90;;
45236;SDS011;30973;51.442;3.580;2022-10-18T10:40:11;7.97;;;2.00;;
45236;SDS011;30973;51.442;3.580;2022-10-18T10:42:50;5.63;;;1.40;;
45236;SDS011;30973;51.442;3.580;2022-10-18T10:48:22;9.60;;;2.47;;
45236;SDS011;30973;51.442;3.580;2022-10-18T10:51:06;6.32;;;1.67;;
45236;SDS011;30973;51.442;3.580;2022-10-18T10:53:57;7.18;;;1.77;;
45236;SDS011;30973;51.442;3.580;2022-10-18T10:56:25;8.57;;;2.13;;
45236;SDS011;30973;51.442;3.580;2022-10-18T10:58:55;6.32;;;2.03;;
45236;SDS011;30973;51.442;3.580;2022-10-18T11:01:45;7.18;;;1.85;;
45236;SDS011;30973;51.442;3.580;2022-10-18T11:04:21;8.32;;;1.60;;
45236;SDS011;30973;51.442;3.580;2022-10-18T11:12:45;9.25;;;1.85;;
45236;SDS011;30973;51.442;3.580;2022-10-18T11:15:21;7.35;;;1.80;;
45236;SDS011;30973;51.442;3.580;2022-10-18T11:21:04;6.30;;;2.10;;
45236;SDS011;30973;51.442;3.580;2022-10-18T11:23:34;7.38;;;1.70;;
45236;SDS011;30973;51.442;3.580;2022-10-18T11:26:54;6.15;;;2.28;;
45236;SDS011;30973;51.442;3.580;2022-10-18T11:29:23;9.20;;;2.25;;
45236;SDS011;30973;51.442;3.580;2022-10-18T11:32:22;6.45;;;1.60;;
45236;SDS011;30973;51.442;3.580;2022-10-18T11:37:52;8.98;;;1.90;;
45236;SDS011;30973;51.442;3.580;2022-10-18T11:46:26;9.07;;;2.05;;
45236;SDS011;30973;51.442;3.580;2022-10-18T11:49:26;9.25;;;2.08;;
45236;SDS011;30973;51.442;3.580;2022-10-18T11:52:03;8.32;;;2.10;;
45236;SDS011;30973;51.442;3.580;2022-10-18T11:54:59;7.93;;;1.73;;
45236;SDS011;30973;51.442;3.580;2022-10-18T12:00:36;7.60;;;2.25;;
45236;SDS011;30973;51.442;3.580;2022-10-18T12:03:21;5.63;;;1.50;;
45236;SDS011;30973;51.442;3.580;2022-10-18T12:06:13;8.85;;;1.58;;
45236;SDS011;30973;51.442;3.580;2022-10-18T12:08:47;10.82;;;2.05;;
45236;SDS011;30973;51.442;3.580;2022-10-18T12:11:43;8.73;;;2.38;;
45236;SDS011;30973;51.442;3.580;2022-10-18T12:14:25;7.28;;;1.90;;
45236;SDS011;30973;51.442;3.580;2022-10-18T12:22:47;10.05;;;1.83;;
45236;SDS011;30973;51.442;3.580;2022-10-18T12:25:21;8.63;;;1.80;;
45236;SDS011;30973;51.442;3.580;2022-10-18T12:33:23;14.20;;;2.95;;
45236;SDS011;30973;51.442;3.580;2022-10-18T12:38:56;11.70;;;2.22;;
45236;SDS011;30973;51.442;3.580;2022-10-18T12:41:27;12.70;;;1.98;;
45236;SDS011;30973;51.442;3.580;2022-10-18T12:44:04;9.55;;;2.38;;
45236;SDS011;30973;51.442;3.580;2022-10-18T12:46:49;6.82;;;2.50;;
45236;SDS011;30973;51.442;3.580;2022-10-18T12:49:31;8.90;;;1.80;;
45236;SDS011;30973;51.442;3.580;2022-10-18T12:52:23;7.88;;;2.00;;
45236;SDS011;30973;51.442;3.580;2022-10-18T13:01:04;7.40;;;2.22;;
45236;SDS011;30973;51.442;3.580;2022-10-18T13:27:12;6.40;;;1.58;;
45236;SDS011;30973;51.442;3.580;2022-10-18T13:35:53;8.55;;;2.25;;
45236;SDS011;30973;51.442;3.580;2022-10-18T14:06:15;7.13;;;1.58;;
45236;SDS011;30973;51.442;3.580;2022-10-18T14:11:47;5.82;;;1.45;;
45236;SDS011;30973;51.442;3.580;2022-10-18T14:14:44;5.43;;;1.38;;
45236;SDS011;30973;51.442;3.580;2022-10-18T14:17:34;6.85;;;1.38;;
45236;SDS011;30973;51.442;3.580;2022-10-18T14:20:26;6.60;;;1.17;;
45236;SDS011;30973;51.442;3.580;2022-10-18T14:28:44;8.25;;;1.50;;
45236;SDS011;30973;51.442;3.580;2022-10-18T14:31:27;6.93;;;1.67;;
45236;SDS011;30973;51.442;3.580;2022-10-18T14:33:56;7.25;;;1.40;;
45236;SDS011;30973;51.442;3.580;2022-10-18T14:36:25;7.95;;;1.88;;
45236;SDS011;30973;51.442;3.580;2022-10-18T14:38:55;8.85;;;1.50;;
45236;SDS011;30973;51.442;3.580;2022-10-18T14:41:34;7.50;;;1.30;;
45236;SDS011;30973;51.442;3.580;2022-10-18T14:46:43;4.50;;;1.40;;
45236;SDS011;30973;51.442;3.580;2022-10-18T14:49:10;5.63;;;1.45;;
45236;SDS011;30973;51.442;3.580;2022-10-18T14:51:39;6.70;;;1.23;;
45236;SDS011;30973;51.442;3.580;2022-10-18T14:54:15;5.47;;;1.23;;
45236;SDS011;30973;51.442;3.580;2022-10-18T14:56:44;5.60;;;1.20;;
45236;SDS011;30973;51.442;3.580;2022-10-18T14:59:16;9.07;;;1.52;;
45236;SDS011;30973;51.442;3.580;2022-10-18T15:01:53;6.68;;;1.73;;
45236;SDS011;30973;51.442;3.580;2022-10-18T15:04:25;8.07;;;1.45;;
45236;SDS011;30973;51.442;3.580;2022-10-18T15:07:03;4.95;;;0.98;;
45236;SDS011;30973;51.442;3.580;2022-10-18T15:09:32;6.85;;;1.35;;
45236;SDS011;30973;51.442;3.580;2022-10-18T15:12:01;3.70;;;1.20;;
45236;SDS011;30973;51.442;3.580;2022-10-18T15:14:30;5.10;;;1.42;;
45236;SDS011;30973;51.442;3.580;2022-10-18T15:16:59;4.72;;;1.50;;
45236;SDS011;30973;51.442;3.580;2022-10-18T15:19:30;6.53;;;1.23;;
45236;SDS011;30973;51.442;3.580;2022-10-18T15:22:01;6.95;;;1.10;;
45236;SDS011;30973;51.442;3.580;2022-10-18T15:27:48;5.95;;;1.27;;
45236;SDS011;30973;51.442;3.580;2022-10-18T15:30:26;6.57;;;1.88;;
45236;SDS011;30973;51.442;3.580;2022-10-18T15:32:56;6.50;;;1.50;;
45236;SDS011;30973;51.442;3.580;2022-10-18T15:35:31;5.72;;;1.35;;
45236;SDS011;30973;51.442;3.580;2022-10-18T15:38:01;5.80;;;1.40;;
45236;SDS011;30973;51.442;3.580;2022-10-18T15:40:40;6.40;;;1.55;;
45236;SDS011;30973;51.442;3.580;2022-10-18T15:45:59;5.80;;;1.42;;
45236;SDS011;30973;51.442;3.580;2022-10-18T15:51:02;3.75;;;1.58;;
45236;SDS011;30973;51.442;3.580;2022-10-18T15:53:41;6.53;;;1.30;;
45236;SDS011;30973;51.442;3.580;2022-10-18T15:58:55;3.97;;;1.10;;
45236;SDS011;30973;51.442;3.580;2022-10-18T16:01:42;5.20;;;1.27;;
45236;SDS011;30973;51.442;3.580;2022-10-18T16:07:01;4.47;;;1.10;;
45236;SDS011;30973;51.442;3.580;2022-10-18T16:09:28;3.80;;;1.27;;
45236;SDS011;30973;51.442;3.580;2022-10-18T16:11:55;4.97;;;1.10;;
45236;SDS011;30973;51.442;3.580;2022-10-18T16:14:24;3.55;;;1.02;;
45236;SDS011;30973;51.442;3.580;2022-10-18T16:16:52;4.88;;;1.45;;
45236;SDS011;30973;51.442;3.580;2022-10-18T16:19:20;6.18;;;1.40;;
45236;SDS011;30973;51.442;3.580;2022-10-18T16:21:48;3.88;;;1.02;;
45236;SDS011;30973;51.442;3.580;2022-10-18T16:24:16;2.67;;;1.15;;
45236;SDS011;30973;51.442;3.580;2022-10-18T16:26:44;8.68;;;1.70;;
45236;SDS011;30973;51.442;3.580;2022-10-18T16:29:14;6.13;;;1.30;;
45236;SDS011;30973;51.442;3.580;2022-10-18T16:31:49;5.30;;;1.20;;
45236;SDS011;30973;51.442;3.580;2022-10-18T16:34:18;3.88;;;1.23;;
45236;SDS011;30973;51.442;3.580;2022-10-18T16:36:45;7.00;;;1.33;;
45236;SDS011;30973;51.442;3.580;2022-10-18T16:39:13;10.30;;;4.60;;
45236;SDS011;30973;51.442;3.580;2022-10-18T16:41:41;9.30;;;5.30;;
45236;SDS011;30973;51.442;3.580;2022-10-18T16:44:09;10.73;;;6.20;;
45236;SDS011;30973;51.442;3.580;2022-10-18T16:46:36;8.85;;;6.07;;
45236;SDS011;30973;51.442;3.580;2022-10-18T16:49:04;11.85;;;7.18;;
45236;SDS011;30973;51.442;3.580;2022-10-18T16:51:31;9.43;;;7.05;;
45236;SDS011;30973;51.442;3.580;2022-10-18T16:53:58;6.07;;;3.58;;
45236;SDS011;30973;51.442;3.580;2022-10-18T16:56:28;5.88;;;3.40;;
45236;SDS011;30973;51.442;3.580;2022-10-18T16:58:57;7.55;;;2.90;;
45236;SDS011;30973;51.442;3.580;2022-10-18T17:01:25;6.78;;;2.03;;
45236;SDS011;30973;51.442;3.580;2022-10-18T17:03:53;9.07;;;2.03;;
45236;SDS011;30973;51.442;3.580;2022-10-18T17:06:25;7.07;;;2.05;;
45236;SDS011;30973;51.442;3.580;2022-10-18T17:08:55;7.70;;;1.90;;
45236;SDS011;30973;51.442;3.580;2022-10-18T17:11:23;6.35;;;1.90;;
45236;SDS011;30973;51.442;3.580;2022-10-18T17:13:52;9.02;;;3.75;;
45236;SDS011;30973;51.442;3.580;2022-10-18T17:16:32;11.80;;;5.20;;
45236;SDS011;30973;51.442;3.580;2022-10-18T17:19:03;6.95;;;2.55;;
45236;SDS011;30973;51.442;3.580;2022-10-18T17:21:31;6.40;;;2.25;;
45236;SDS011;30973;51.442;3.580;2022-10-18T17:23:59;9.55;;;3.33;;
45236;SDS011;30973;51.442;3.580;2022-10-18T17:26:31;6.60;;;2.88;;
45236;SDS011;30973;51.442;3.580;2022-10-18T17:29:00;7.22;;;3.35;;
45236;SDS011;30973;51.442;3.580;2022-10-18T17:31:29;9.68;;;2.92;;
45236;SDS011;30973;51.442;3.580;2022-10-18T17:33:57;9.18;;;3.75;;
45236;SDS011;30973;51.442;3.580;2022-10-18T17:36:28;10.57;;;3.88;;
45236;SDS011;30973;51.442;3.580;2022-10-18T17:38:56;8.77;;;2.88;;
45236;SDS011;30973;51.442;3.580;2022-10-18T17:41:23;6.30;;;1.63;;
45236;SDS011;30973;51.442;3.580;2022-10-18T17:43:50;7.25;;;2.17;;
45236;SDS011;30973;51.442;3.580;2022-10-18T17:46:17;7.72;;;2.45;;
45236;SDS011;30973;51.442;3.580;2022-10-18T17:48:45;5.93;;;1.50;;
45236;SDS011;30973;51.442;3.580;2022-10-18T17:51:14;6.15;;;1.75;;
45236;SDS011;30973;51.442;3.580;2022-10-18T17:53:42;6.15;;;1.75;;
45236;SDS011;30973;51.442;3.580;2022-10-18T17:56:09;7.10;;;2.20;;
45236;SDS011;30973;51.442;3.580;2022-10-18T17:58:37;5.53;;;1.95;;
45236;SDS011;30973;51.442;3.580;2022-10-18T18:01:12;9.10;;;2.20;;
45236;SDS011;30973;51.442;3.580;2022-10-18T18:03:43;7.35;;;1.80;;
45236;SDS011;30973;51.442;3.580;2022-10-18T18:06:17;7.63;;;1.98;;
45236;SDS011;30973;51.442;3.580;2022-10-18T18:08:46;7.60;;;2.47;;
45236;SDS011;30973;51.442;3.580;2022-10-18T18:11:14;5.78;;;1.92;;
45236;SDS011;30973;51.442;3.580;2022-10-18T18:13:42;21.27;;;9.57;;
45236;SDS011;30973;51.442;3.580;2022-10-18T18:16:20;7.80;;;3.17;;
45236;SDS011;30973;51.442;3.580;2022-10-18T18:18:50;5.93;;;1.65;;
45236;SDS011;30973;51.442;3.580;2022-10-18T18:21:18;5.47;;;1.95;;